Time;durP1;ratioP1;P1;durP2;ratioP2;P2;SDS_P1;SDS_P2;PMS_P1;PMS_P2;Temp;Humidity;BMP_temperature;BMP_pressure;BME280_temperature;BME280_humidity;BME280_pressure;Samples;Min_cycle;Max_cycle;Signal;HPM_P1;HPM_P2
2023/08/31 00:01:56;;;;;;;5.80;3.17;;;13.80;53.30;;;;;;7401559;19;20050;-72
2023/08/31 00:04:26;;;;;;;11.02;3.08;;;13.70;52.00;;;;;;7411124;19;20023;-71
2023/08/31 00:06:56;;;;;;;4.90;2.90;;;13.60;49.00;;;;;;7404190;19;20010;-72
2023/08/31 00:09:29;;;;;;;8.68;3.22;;;13.60;56.70;;;;;;7401508;19;20029;-72
2023/08/31 00:11:59;;;;;;;6.13;2.97;;;13.50;52.70;;;;;;7397449;19;20022;-72
2023/08/31 00:14:29;;;;;;;6.68;2.90;;;13.50;63.50;;;;;;7403595;19;20027;-71
2023/08/31 00:16:59;;;;;;;5.70;2.75;;;13.50;63.10;;;;;;7404445;19;20018;-71
2023/08/31 00:19:29;;;;;;;8.90;4.50;;;13.50;70.50;;;;;;7402447;19;20026;-72
2023/08/31 00:21:59;;;;;;;6.18;3.40;;;13.40;73.10;;;;;;7396927;19;20074;-72
2023/08/31 00:24:33;;;;;;;5.30;3.25;;;13.40;75.10;;;;;;7406481;19;20006;-72
2023/08/31 00:27:03;;;;;;;7.45;3.70;;;13.40;71.00;;;;;;7407697;19;20031;-72
2023/08/31 00:29:33;;;;;;;6.75;3.67;;;13.40;72.90;;;;;;7406598;19;20018;-71
2023/08/31 00:32:03;;;;;;;6.00;3.15;;;13.30;67.60;;;;;;7404533;19;20051;-72
2023/08/31 00:34:34;;;;;;;7.15;3.67;;;13.30;77.00;;;;;;7402504;19;20013;-72
2023/08/31 00:37:03;;;;;;;3.70;3.30;;;13.20;74.40;;;;;;7405060;19;20128;-70
2023/08/31 00:39:37;;;;;;;6.10;3.67;;;13.20;82.10;;;;;;7402604;19;20019;-71
2023/08/31 00:42:08;;;;;;;5.80;3.00;;;13.20;79.80;;;;;;7402241;19;20095;-71
2023/08/31 00:44:37;;;;;;;6.47;3.38;;;13.20;82.50;;;;;;7403354;19;20020;-71
2023/08/31 00:47:08;;;;;;;5.47;3.40;;;13.20;85.40;;;;;;7402936;19;20031;-71
2023/08/31 00:49:38;;;;;;;6.20;3.40;;;13.10;79.40;;;;;;7401906;19;20026;-70
2023/08/31 00:52:08;;;;;;;7.82;3.80;;;13.10;89.40;;;;;;7399880;19;20054;-70
2023/08/31 00:54:42;;;;;;;5.68;3.15;;;13.10;84.70;;;;;;7400251;19;20495;-71
2023/08/31 00:57:12;;;;;;;4.77;3.30;;;13.10;83.20;;;;;;7399928;19;20018;-70
2023/08/31 00:59:42;;;;;;;6.82;3.30;;;13.10;85.70;;;;;;7400756;19;20051;-70
2023/08/31 01:02:20;;;;;;;6.78;3.53;;;13.20;84.50;;;;;;7390874;19;20023;-71
2023/08/31 01:04:57;;;;;;;6.18;3.20;;;13.30;78.80;;;;;;7392782;19;20077;-70
2023/08/31 01:07:37;;;;;;;6.40;3.22;;;13.20;66.40;;;;;;7392977;19;20014;-71
2023/08/31 01:10:17;;;;;;;5.22;3.53;;;13.20;67.80;;;;;;7392128;19;20035;-71
2023/08/31 01:12:51;;;;;;;5.65;3.50;;;13.10;64.00;;;;;;7390723;19;20073;-71
2023/08/31 01:15:22;;;;;;;3.67;3.25;;;13.10;68.60;;;;;;7392482;19;20011;-71
2023/08/31 01:17:56;;;;;;;4.75;3.10;;;13.10;67.20;;;;;;7391848;19;20011;-71
2023/08/31 01:20:34;;;;;;;4.93;3.20;;;13.10;73.00;;;;;;7394408;19;20040;-71
2023/08/31 01:23:08;;;;;;;6.35;3.72;;;13.00;74.60;;;;;;7394203;19;20462;-71
2023/08/31 01:25:43;;;;;;;10.45;3.65;;;13.00;79.20;;;;;;7396261;19;20046;-71
2023/08/31 01:28:13;;;;;;;4.10;3.40;;;13.00;83.80;;;;;;7390451;19;20018;-71
2023/08/31 01:30:44;;;;;;;6.65;3.58;;;12.90;85.50;;;;;;7389801;19;20082;-71
2023/08/31 01:33:15;;;;;;;5.78;3.80;;;12.90;88.60;;;;;;7392217;19;20028;-71
2023/08/31 01:35:49;;;;;;;7.03;4.18;;;12.90;90.80;;;;;;7391958;19;20034;-72
2023/08/31 01:38:23;;;;;;;7.55;3.80;;;12.90;93.60;;;;;;7390237;19;20022;-71
2023/08/31 01:41:03;;;;;;;5.88;3.90;;;12.90;94.80;;;;;;7390336;19;20023;-72
2023/08/31 01:43:35;;;;;;;6.93;3.47;;;12.80;95.00;;;;;;7389573;19;20102;-71
2023/08/31 01:46:05;;;;;;;7.22;3.80;;;12.80;94.40;;;;;;7393124;19;20014;-71
2023/08/31 01:48:41;;;;;;;7.07;3.95;;;12.90;94.30;;;;;;7391792;19;20011;-71
2023/08/31 01:51:12;;;;;;;7.22;3.83;;;12.90;92.80;;;;;;7390182;19;20035;-71
2023/08/31 01:53:42;;;;;;;7.18;3.90;;;12.90;91.70;;;;;;7389293;19;20019;-71
2023/08/31 01:56:15;;;;;;;4.45;3.42;;;13.00;91.70;;;;;;7394891;19;20014;-71
2023/08/31 01:58:45;;;;;;;5.55;3.97;;;13.00;82.40;;;;;;7391330;19;20110;-71
2023/08/31 02:01:15;;;;;;;6.25;4.00;;;13.00;80.60;;;;;;7389517;19;20503;-71
2023/08/31 02:03:45;;;;;;;9.30;4.28;;;13.00;75.20;;;;;;7388891;19;20395;-71
2023/08/31 02:06:15;;;;;;;6.70;3.65;;;13.00;76.10;;;;;;7391211;19;20014;-72
2023/08/31 02:08:47;;;;;;;6.20;3.83;;;13.00;72.60;;;;;;7390620;19;20400;-71
2023/08/31 02:11:19;;;;;;;6.00;4.00;;;13.00;73.30;;;;;;7389550;19;20015;-71
2023/08/31 02:13:49;;;;;;;5.90;4.00;;;13.00;66.00;;;;;;7390628;19;20015;-71
2023/08/31 02:16:19;;;;;;;4.82;3.53;;;13.10;69.80;;;;;;7390713;19;20023;-71
2023/08/31 02:18:49;;;;;;;4.70;3.33;;;13.10;70.30;;;;;;7390504;19;20105;-71
2023/08/31 02:21:19;;;;;;;5.53;3.25;;;13.10;71.40;;;;;;7389235;19;20027;-72
2023/08/31 02:23:50;;;;;;;4.85;3.63;;;13.10;71.40;;;;;;7387803;19;20035;-71
2023/08/31 02:26:24;;;;;;;5.18;3.50;;;13.20;69.70;;;;;;7390596;19;20074;-72
2023/08/31 02:28:54;;;;;;;6.93;3.67;;;13.20;68.20;;;;;;7390206;19;20108;-72
2023/08/31 02:31:24;;;;;;;4.85;3.58;;;13.20;69.20;;;;;;7387253;19;20035;-71
2023/08/31 02:33:53;;;;;;;5.53;3.05;;;13.30;67.50;;;;;;7388104;19;20025;-70
2023/08/31 02:36:23;;;;;;;6.35;3.22;;;13.20;66.20;;;;;;7389975;19;20018;-70
2023/08/31 02:38:53;;;;;;;9.07;3.30;;;13.20;70.60;;;;;;7389944;19;20022;-70
2023/08/31 02:41:26;;;;;;;4.72;3.03;;;13.20;72.60;;;;;;7388622;19;20031;-72
2023/08/31 02:43:56;;;;;;;6.95;3.20;;;13.30;74.00;;;;;;7387804;19;20023;-71
2023/08/31 02:46:26;;;;;;;5.28;3.28;;;13.20;73.50;;;;;;7391458;19;20034;-71
2023/08/31 02:48:56;;;;;;;5.10;3.00;;;13.30;77.10;;;;;;7389817;19;20007;-71
2023/08/31 02:51:26;;;;;;;4.40;3.22;;;13.30;75.10;;;;;;7388013;19;20007;-70
2023/08/31 02:53:56;;;;;;;4.53;3.00;;;13.30;75.90;;;;;;7388721;19;20014;-70
2023/08/31 02:56:28;;;;;;;5.78;3.38;;;13.30;75.90;;;;;;7389233;19;20010;-71
2023/08/31 02:58:58;;;;;;;5.32;2.65;;;13.30;76.00;;;;;;7387687;19;20082;-70
2023/08/31 03:01:28;;;;;;;3.90;2.80;;;13.30;72.80;;;;;;7387532;19;20027;-71
2023/08/31 03:03:58;;;;;;;3.15;2.47;;;13.30;74.80;;;;;;7387264;19;20031;-72
2023/08/31 03:06:28;;;;;;;6.00;2.92;;;13.30;70.70;;;;;;7388923;19;20085;-71
2023/08/31 03:08:58;;;;;;;3.35;2.78;;;13.30;72.20;;;;;;7389268;19;20010;-71
2023/08/31 03:11:32;;;;;;;4.20;2.60;;;13.30;67.80;;;;;;7387473;19;20074;-71
2023/08/31 03:14:02;;;;;;;4.82;3.35;;;13.30;68.40;;;;;;7388683;19;20484;-71
2023/08/31 03:16:32;;;;;;;5.18;2.60;;;13.30;69.90;;;;;;7388611;19;20018;-71
2023/08/31 03:19:02;;;;;;;3.70;2.80;;;13.20;72.40;;;;;;7389028;19;20021;-71
2023/08/31 03:21:32;;;;;;;6.75;3.30;;;13.20;76.20;;;;;;7387070;19;20052;-72
2023/08/31 03:24:02;;;;;;;5.20;3.05;;;13.10;78.40;;;;;;7386662;19;20362;-70
2023/08/31 03:26:35;;;;;;;7.15;3.25;;;13.10;84.50;;;;;;7388638;19;20655;-71
2023/08/31 03:29:04;;;;;;;5.90;3.17;;;13.00;85.80;;;;;;7387947;19;20094;-71
2023/08/31 03:31:35;;;;;;;3.67;2.90;;;13.00;85.40;;;;;;7387473;19;20030;-71
2023/08/31 03:34:04;;;;;;;7.93;2.90;;;12.90;85.20;;;;;;7388187;19;20082;-71
2023/08/31 03:36:34;;;;;;;5.18;3.28;;;12.90;88.10;;;;;;7391577;19;20102;-71
2023/08/31 03:39:04;;;;;;;4.75;2.95;;;12.90;88.10;;;;;;7395490;19;20526;-71
2023/08/31 03:41:37;;;;;;;6.72;3.25;;;12.80;88.50;;;;;;7393153;19;20392;-70
2023/08/31 03:44:07;;;;;;;7.43;3.05;;;12.80;90.50;;;;;;7393357;19;20078;-71
2023/08/31 03:46:37;;;;;;;5.18;2.88;;;12.70;91.40;;;;;;7397746;19;20044;-72
2023/08/31 03:49:07;;;;;;;6.63;3.30;;;12.70;94.10;;;;;;7394943;19;20042;-71
2023/08/31 03:51:37;;;;;;;7.85;3.30;;;12.80;94.20;;;;;;7392579;19;20042;-71
2023/08/31 03:54:07;;;;;;;4.60;3.20;;;12.80;93.70;;;;;;7394881;19;20017;-70
2023/08/31 03:56:40;;;;;;;5.22;2.90;;;12.80;92.50;;;;;;7395960;19;20036;-71
2023/08/31 03:59:10;;;;;;;5.40;3.13;;;12.80;92.20;;;;;;7394380;19;20057;-71
2023/08/31 04:01:40;;;;;;;6.82;3.22;;;12.80;92.20;;;;;;7392634;19;20015;-71
2023/08/31 04:04:10;;;;;;;4.95;3.22;;;12.70;89.80;;;;;;7389747;19;20022;-70
2023/08/31 04:06:40;;;;;;;3.75;2.88;;;12.80;84.20;;;;;;7397502;19;20129;-71
2023/08/31 04:09:10;;;;;;;4.78;3.03;;;12.80;83.40;;;;;;7397742;19;20144;-71
2023/08/31 04:11:42;;;;;;;6.47;3.10;;;12.70;85.80;;;;;;7395911;19;20514;-70
2023/08/31 04:14:12;;;;;;;3.60;2.60;;;12.70;87.60;;;;;;7396386;19;20024;-69
2023/08/31 04:16:42;;;;;;;5.70;3.22;;;12.70;87.30;;;;;;7399665;19;20434;-70
2023/08/31 04:19:12;;;;;;;5.65;2.97;;;12.70;90.80;;;;;;7393736;19;20022;-70
2023/08/31 04:21:42;;;;;;;3.08;2.78;;;12.70;90.30;;;;;;7391541;19;20022;-69
2023/08/31 04:24:12;;;;;;;5.45;3.17;;;12.70;88.80;;;;;;7391960;19;20379;-70
2023/08/31 04:26:47;;;;;;;7.93;3.10;;;12.80;82.50;;;;;;7393899;19;20077;-70
2023/08/31 04:29:17;;;;;;;5.47;3.22;;;12.70;80.00;;;;;;7394006;19;20025;-71
2023/08/31 04:31:47;;;;;;;4.75;3.10;;;12.70;79.40;;;;;;7391765;19;20486;-71
2023/08/31 04:34:17;;;;;;;5.93;2.72;;;12.70;81.10;;;;;;7393333;19;20511;-70
2023/08/31 04:36:47;;;;;;;4.75;3.05;;;12.60;84.20;;;;;;7393826;19;20010;-70
2023/08/31 04:39:17;;;;;;;4.30;2.97;;;12.60;88.30;;;;;;7393967;19;20020;-70
2023/08/31 04:41:50;;;;;;;3.63;3.08;;;12.60;91.00;;;;;;7391152;19;20507;-70
2023/08/31 04:44:20;;;;;;;7.47;3.20;;;12.50;93.20;;;;;;7392093;19;20015;-71
2023/08/31 04:46:50;;;;;;;4.28;3.35;;;12.50;94.50;;;;;;7395560;19;20018;-70
2023/08/31 04:49:20;;;;;;;5.45;3.22;;;12.50;95.70;;;;;;7391647;19;20025;-71
2023/08/31 04:51:50;;;;;;;7.75;3.80;;;12.50;95.70;;;;;;7390615;19;20100;-71
2023/08/31 04:54:20;;;;;;;3.95;3.20;;;12.50;96.30;;;;;;7392696;19;20020;-71
2023/08/31 04:56:53;;;;;;;5.25;3.25;;;12.60;95.20;;;;;;7392629;19;20081;-71
2023/08/31 04:59:23;;;;;;;6.05;3.55;;;12.60;94.70;;;;;;7393077;19;20492;-71
2023/08/31 05:01:52;;;;;;;7.93;3.55;;;12.60;93.40;;;;;;7390305;19;20090;-70
2023/08/31 05:04:23;;;;;;;3.97;3.25;;;12.60;93.10;;;;;;7392329;19;20088;-72
2023/08/31 05:06:53;;;;;;;5.15;3.40;;;12.60;91.80;;;;;;7392242;19;20007;-70
2023/08/31 05:09:23;;;;;;;5.25;3.47;;;12.60;91.70;;;;;;7392599;19;20103;-70
2023/08/31 05:11:55;;;;;;;6.40;3.80;;;12.60;90.20;;;;;;7390051;19;20019;-70
2023/08/31 05:14:25;;;;;;;5.53;3.53;;;12.60;88.70;;;;;;7392852;19;20474;-71
2023/08/31 05:16:55;;;;;;;4.97;3.55;;;13.30;61.50;;;;;;7392140;19;20018;-71
2023/08/31 05:19:25;;;;;;;5.82;3.45;;;13.00;57.80;;;;;;7392156;19;20074;-70
2023/08/31 05:21:56;;;;;;;4.10;3.00;;;13.20;55.90;;;;;;7393189;19;20042;-72
2023/08/31 05:24:26;;;;;;;7.55;3.70;;;13.40;40.60;;;;;;7395158;19;20014;-70
2023/08/31 05:26:59;;;;;;;6.47;3.20;;;14.40;10.90;;;;;;7395229;19;20533;-71
2023/08/31 05:29:29;;;;;;;5.93;3.05;;;13.90;9.90;;;;;;7395719;19;20383;-70
2023/08/31 05:31:59;;;;;;;4.07;3.10;;;15.50;1.00;;;;;;7392750;19;20018;-70
2023/08/31 05:34:28;;;;;;;5.20;3.30;;;16.20;1.00;;;;;;7395151;19;20078;-71
2023/08/31 05:36:58;;;;;;;8.00;3.03;;;15.00;1.00;;;;;;7395411;19;20011;-71
2023/08/31 05:39:28;;;;;;;3.60;2.83;;;13.90;1.00;;;;;;7395946;19;20692;-71
2023/08/31 05:42:01;;;;;;;3.42;3.10;;;13.40;15.60;;;;;;7392840;19;20018;-71
2023/08/31 05:44:32;;;;;;;6.63;3.03;;;13.30;25.70;;;;;;7394146;19;20012;-71
2023/08/31 05:47:03;;;;;;;5.63;3.00;;;13.20;29.70;;;;;;7395030;19;20069;-72
2023/08/31 05:49:33;;;;;;;4.30;2.83;;;13.10;32.10;;;;;;7395000;19;20006;-72
2023/08/31 05:52:03;;;;;;;5.47;2.80;;;13.10;42.30;;;;;;7394735;19;20082;-70
2023/08/31 05:54:33;;;;;;;4.68;3.00;;;13.10;44.40;;;;;;7393361;19;20114;-71
2023/08/31 05:57:06;;;;;;;5.70;2.92;;;13.10;46.40;;;;;;7393987;19;20373;-72
2023/08/31 05:59:36;;;;;;;6.70;3.08;;;13.30;46.90;;;;;;7393189;19;20081;-71
2023/08/31 06:02:08;;;;;;;4.25;2.70;;;13.40;35.00;;;;;;7394577;19;20063;-72
2023/08/31 06:04:38;;;;;;;7.13;3.10;;;13.50;40.50;;;;;;7393114;19;20118;-71
2023/08/31 06:07:08;;;;;;;6.50;3.00;;;13.60;38.20;;;;;;7394108;19;20010;-71
2023/08/31 06:09:38;;;;;;;4.40;3.05;;;13.40;35.40;;;;;;7392278;19;20026;-71
2023/08/31 06:12:10;;;;;;;4.85;3.22;;;13.30;34.10;;;;;;7393674;19;20035;-71
2023/08/31 06:14:40;;;;;;;5.22;2.75;;;13.40;33.70;;;;;;7393316;19;21125;-72
2023/08/31 06:17:12;;;;;;;9.50;3.05;;;13.40;31.00;;;;;;7393244;19;20040;-71
2023/08/31 06:19:44;;;;;;;6.97;3.45;;;13.60;29.40;;;;;;7392802;19;20726;-71
2023/08/31 06:22:14;;;;;;;5.72;3.13;;;13.70;27.50;;;;;;7393416;19;20040;-70
2023/08/31 06:24:45;;;;;;;6.47;3.20;;;13.70;26.30;;;;;;7392263;19;20534;-71
2023/08/31 06:27:18;;;;;;;4.78;3.05;;;13.60;22.40;;;;;;7392931;19;20066;-71
2023/08/31 06:29:48;;;;;;;6.82;3.10;;;13.70;26.00;;;;;;7392395;19;20022;-70
2023/08/31 06:32:19;;;;;;;9.40;3.17;;;13.90;21.50;;;;;;7393481;19;20043;-70
2023/08/31 06:34:49;;;;;;;7.03;2.80;;;14.10;19.20;;;;;;7392301;19;20086;-70
2023/08/31 06:37:20;;;;;;;4.60;2.78;;;14.20;9.60;;;;;;7393306;19;20011;-71
2023/08/31 06:39:50;;;;;;;5.35;2.80;;;14.60;9.70;;;;;;7392901;19;20006;-70
2023/08/31 06:42:22;;;;;;;5.70;3.08;;;14.80;1.00;;;;;;7391378;19;20418;-72
2023/08/31 06:44:55;;;;;;;5.50;2.60;;;15.20;1.00;;;;;;7391525;19;20036;-72
2023/08/31 06:47:25;;;;;;;5.38;2.25;;;15.50;1.00;;;;;;7392877;19;20035;-70
2023/08/31 06:49:55;;;;;;;6.28;2.70;;;15.60;1.00;;;;;;7392186;19;20023;-71
2023/08/31 06:52:25;;;;;;;4.63;2.25;;;15.80;1.00;;;;;;7392772;19;20027;-72
2023/08/31 06:55:00;;;;;;;2.95;2.10;;;15.80;1.00;;;;;;7391682;19;20006;-72
2023/08/31 06:57:33;;;;;;;5.93;2.22;;;16.00;1.00;;;;;;7389684;19;20376;-71
2023/08/31 07:00:03;;;;;;;3.78;2.05;;;15.80;1.00;;;;;;7390189;19;20473;-71
2023/08/31 07:02:34;;;;;;;7.65;2.30;;;15.80;1.00;;;;;;7392413;19;20709;-71
2023/08/31 07:05:05;;;;;;;4.07;2.15;;;15.70;1.00;;;;;;7391452;19;20006;-71
2023/08/31 07:07:35;;;;;;;5.22;2.00;;;15.80;1.00;;;;;;7392388;19;20031;-71
2023/08/31 07:10:05;;;;;;;3.40;1.95;;;15.70;1.00;;;;;;7390116;19;20006;-71
2023/08/31 07:12:38;;;;;;;6.22;2.17;;;15.60;1.00;;;;;;7391380;19;20014;-72
2023/08/31 07:15:09;;;;;;;4.60;1.77;;;15.80;1.00;;;;;;7391208;19;20010;-71
2023/08/31 07:17:39;;;;;;;7.10;2.10;;;16.10;1.00;;;;;;7390193;19;20022;-71
2023/08/31 07:20:10;;;;;;;5.38;2.05;;;16.20;1.00;;;;;;7389504;19;20085;-71
2023/08/31 07:22:40;;;;;;;8.73;2.00;;;16.10;1.00;;;;;;7389013;19;20043;-71
2023/08/31 07:25:11;;;;;;;3.00;2.00;;;16.30;1.00;;;;;;7388918;19;20470;-71
2023/08/31 07:27:44;;;;;;;8.23;2.00;;;16.40;1.00;;;;;;7390046;19;20495;-71
2023/08/31 07:30:14;;;;;;;4.45;1.92;;;16.60;1.00;;;;;;7389169;19;20015;-71
2023/08/31 07:32:44;;;;;;;5.18;2.08;;;16.30;1.00;;;;;;7389433;19;20544;-70
2023/08/31 07:35:14;;;;;;;4.05;1.90;;;16.50;1.00;;;;;;7389683;19;20011;-71
2023/08/31 07:37:44;;;;;;;5.03;1.95;;;16.40;1.00;;;;;;7391649;19;20011;-70
2023/08/31 07:40:14;;;;;;;4.00;2.05;;;16.50;1.00;;;;;;7390852;19;20018;-71
2023/08/31 07:42:47;;;;;;;14.88;8.38;;;17.00;1.00;;;;;;7389487;19;20362;-71
2023/08/31 07:45:17;;;;;;;2.97;1.63;;;17.50;1.00;;;;;;7390671;19;20021;-71
2023/08/31 07:47:47;;;;;;;4.70;2.00;;;17.40;1.00;;;;;;7389895;19;20031;-70
2023/08/31 07:50:17;;;;;;;4.30;1.77;;;17.70;1.00;;;;;;7388813;19;20379;-70
2023/08/31 07:52:47;;;;;;;3.60;1.88;;;17.90;1.00;;;;;;7389666;19;20011;-71
2023/08/31 07:55:17;;;;;;;3.90;1.58;;;17.40;1.00;;;;;;7387245;19;20672;-71
2023/08/31 07:57:50;;;;;;;6.43;1.92;;;17.90;1.00;;;;;;7389176;19;20074;-70
2023/08/31 08:00:20;;;;;;;4.85;1.52;;;18.20;1.00;;;;;;7388226;19;20441;-71
2023/08/31 08:02:50;;;;;;;4.90;1.70;;;18.10;1.00;;;;;;7389522;19;20030;-71
2023/08/31 08:05:20;;;;;;;4.05;2.10;;;18.20;1.00;;;;;;7390720;19;20010;-72
2023/08/31 08:07:51;;;;;;;3.00;1.85;;;18.00;1.00;;;;;;7388897;19;20021;-71
2023/08/31 08:10:21;;;;;;;6.05;1.80;;;17.70;1.00;;;;;;7389870;19;20010;-71
2023/08/31 08:12:55;;;;;;;4.80;1.73;;;17.70;1.00;;;;;;7390398;19;20055;-71
2023/08/31 08:15:25;;;;;;;5.80;1.88;;;17.40;1.00;;;;;;7390641;19;20027;-70
2023/08/31 08:17:57;;;;;;;2.63;1.52;;;16.50;1.00;;;;;;7390331;19;20031;-71
2023/08/31 08:20:27;;;;;;;4.85;1.80;;;16.80;1.00;;;;;;7390068;19;20363;-70
2023/08/31 08:22:58;;;;;;;4.90;2.05;;;16.40;1.00;;;;;;7394637;19;20365;-71
2023/08/31 08:25:28;;;;;;;3.30;1.60;;;16.50;1.00;;;;;;7397480;19;20014;-70
2023/08/31 08:28:00;;;;;;;7.47;2.10;;;16.90;1.00;;;;;;7394842;19;20010;-70
2023/08/31 08:30:30;;;;;;;3.75;1.40;;;16.70;1.00;;;;;;7396209;19;20035;-71
2023/08/31 08:33:00;;;;;;;2.53;1.63;;;17.00;1.00;;;;;;7397587;19;20011;-71
2023/08/31 08:35:30;;;;;;;3.83;1.65;;;17.30;1.00;;;;;;7396596;19;20494;-70
2023/08/31 08:38:00;;;;;;;4.72;1.90;;;17.20;1.00;;;;;;7397503;19;20093;-70
2023/08/31 08:40:33;;;;;;;2.40;1.60;;;17.20;1.00;;;;;;7396070;19;20014;-71
2023/08/31 08:43:09;;;;;;;5.57;2.15;;;17.60;1.00;;;;;;7397319;19;20018;-71
2023/08/31 08:45:42;;;;;;;5.60;2.17;;;18.00;1.00;;;;;;7396102;19;20010;-71
2023/08/31 08:48:12;;;;;;;5.18;1.85;;;18.00;1.00;;;;;;7394101;19;20440;-70
2023/08/31 08:50:43;;;;;;;5.60;1.70;;;18.60;1.00;;;;;;7395905;19;20010;-71
2023/08/31 08:53:15;;;;;;;5.15;2.08;;;18.60;1.00;;;;;;7396457;19;20010;-71
2023/08/31 08:55:44;;;;;;;5.40;1.70;;;18.30;1.00;;;;;;7394452;19;20027;-70
2023/08/31 08:58:27;;;;;;;5.70;1.70;;;17.80;1.00;;;;;;7395745;19;20122;-71
2023/08/31 09:00:58;;;;;;;4.95;2.05;;;18.60;1.00;;;;;;7395634;19;20029;-70
2023/08/31 09:03:28;;;;;;;5.35;1.90;;;18.40;1.00;;;;;;7392346;19;20014;-70
2023/08/31 09:05:58;;;;;;;4.60;1.90;;;18.20;1.00;;;;;;7392210;19;20078;-71
2023/08/31 09:08:29;;;;;;;3.13;1.58;;;18.40;1.00;;;;;;7392421;19;20078;-71
2023/08/31 09:11:01;;;;;;;4.22;2.20;;;17.30;1.00;;;;;;7391006;19;20024;-71
2023/08/31 09:13:34;;;;;;;3.55;1.70;;;17.40;1.00;;;;;;7392367;19;20086;-70
2023/08/31 09:16:04;;;;;;;4.03;1.92;;;17.40;1.00;;;;;;7395711;19;20019;-71
2023/08/31 09:18:35;;;;;;;2.90;1.58;;;17.40;1.00;;;;;;7395809;19;20003;-72
2023/08/31 09:21:05;;;;;;;4.78;1.85;;;17.30;1.00;;;;;;7391991;19;20018;-70
2023/08/31 09:23:35;;;;;;;7.15;2.15;;;17.10;1.00;;;;;;7395270;19;20495;-71
2023/08/31 09:26:06;;;;;;;4.10;1.88;;;17.30;1.00;;;;;;7394684;19;20091;-71
2023/08/31 09:28:44;;;;;;;3.42;1.90;;;17.80;1.00;;;;;;7393910;19;20007;-70
2023/08/31 09:31:14;;;;;;;3.15;1.73;;;18.10;1.00;;;;;;7394475;19;20081;-70
2023/08/31 09:33:52;;;;;;;4.53;1.80;;;18.10;1.00;;;;;;7390901;19;20371;-72
2023/08/31 09:36:23;;;;;;;3.22;1.73;;;18.20;1.00;;;;;;7393919;19;20031;-71
2023/08/31 09:38:53;;;;;;;4.50;2.22;;;18.70;1.00;;;;;;7393757;19;20003;-71
2023/08/31 09:41:23;;;;;;;3.83;1.60;;;17.90;1.00;;;;;;7390275;19;20014;-71
2023/08/31 09:43:56;;;;;;;5.50;1.77;;;18.20;1.00;;;;;;7394245;19;20304;-70
2023/08/31 09:46:27;;;;;;;7.07;4.43;;;17.70;1.00;;;;;;7394274;19;20022;-71
2023/08/31 09:48:57;;;;;;;4.15;1.88;;;17.90;1.00;;;;;;7394745;19;20014;-72
2023/08/31 09:51:29;;;;;;;4.00;1.83;;;18.00;1.00;;;;;;7392560;19;20471;-71
2023/08/31 09:54:01;;;;;;;4.90;1.65;;;17.90;1.00;;;;;;7394237;19;20010;-71
2023/08/31 09:56:35;;;;;;;3.40;1.70;;;18.60;1.00;;;;;;7394488;19;20011;-71
2023/08/31 09:59:08;;;;;;;2.97;1.65;;;18.40;1.00;;;;;;7394036;19;20023;-72
2023/08/31 10:01:38;;;;;;;3.78;1.73;;;18.90;1.00;;;;;;7393145;19;20023;-71
2023/08/31 10:04:10;;;;;;;5.88;2.05;;;18.30;1.00;;;;;;7393296;19;20435;-72
2023/08/31 10:06:42;;;;;;;3.85;1.70;;;18.70;1.00;;;;;;7394556;19;20479;-71
2023/08/31 10:09:12;;;;;;;3.88;1.70;;;18.80;1.00;;;;;;7393277;19;20015;-71
2023/08/31 10:11:45;;;;;;;9.65;5.32;;;19.10;1.00;;;;;;7392079;19;20427;-72
2023/08/31 10:14:21;;;;;;;2.85;1.52;;;19.60;1.00;;;;;;7393632;19;20029;-73
2023/08/31 10:16:54;;;;;;;3.13;1.60;;;20.00;1.00;;;;;;7388873;19;20014;-71
2023/08/31 10:19:24;;;;;;;4.03;1.73;;;19.80;1.00;;;;;;7391738;19;20078;-70
2023/08/31 10:22:00;;;;;;;3.90;1.88;;;19.30;1.00;;;;;;7391627;19;20010;-70
2023/08/31 10:25:00;;;;;;;3.10;1.42;;;18.50;1.00;;;;;;7392826;19;20019;-70
2023/08/31 10:27:30;;;;;;;4.53;1.70;;;18.40;1.00;;;;;;7392630;19;20035;-70
2023/08/31 10:30:16;;;;;;;6.32;1.70;;;19.00;1.00;;;;;;7392048;19;20026;-72
2023/08/31 10:32:47;;;;;;;4.18;1.77;;;19.00;1.00;;;;;;7392993;19;20074;-72
2023/08/31 10:35:17;;;;;;;4.30;1.70;;;18.80;1.00;;;;;;7390383;19;20498;-71
2023/08/31 10:37:47;;;;;;;2.70;1.35;;;18.80;1.00;;;;;;7393128;19;20010;-71
2023/08/31 10:40:18;;;;;;;2.65;1.70;;;19.00;1.00;;;;;;7391571;19;20488;-71
2023/08/31 10:42:49;;;;;;;4.10;1.73;;;19.00;1.00;;;;;;7393611;19;20688;-71
2023/08/31 10:45:25;;;;;;;3.85;1.75;;;19.10;1.00;;;;;;7390332;19;20556;-71
2023/08/31 10:48:03;;;;;;;3.75;1.40;;;19.60;1.00;;;;;;7391771;19;20467;-71
2023/08/31 10:50:44;;;;;;;5.18;1.90;;;19.70;1.00;;;;;;7391415;19;20406;-71
2023/08/31 10:53:14;;;;;;;4.28;2.03;;;19.20;1.00;;;;;;7392932;19;20014;-71
2023/08/31 10:55:53;;;;;;;4.75;1.95;;;19.10;1.00;;;;;;7390863;19;20471;-72
2023/08/31 10:58:23;;;;;;;7.28;2.45;;;18.70;1.00;;;;;;7392226;19;20109;-72
2023/08/31 11:01:03;;;;;;;4.88;2.35;;;19.00;1.00;;;;;;7389607;19;20186;-72
2023/08/31 11:03:59;;;;;;;6.65;2.30;;;18.60;1.00;;;;;;7390784;19;20010;-70
2023/08/31 11:06:31;;;;;;;4.85;2.20;;;18.90;1.00;;;;;;7391867;19;20014;-72
2023/08/31 11:09:03;;;;;;;4.95;1.95;;;18.90;1.00;;;;;;7391378;19;20038;-73
2023/08/31 11:11:40;;;;;;;4.05;2.00;;;18.70;1.00;;;;;;7390244;19;20015;-70
2023/08/31 11:14:12;;;;;;;5.18;2.15;;;18.80;1.00;;;;;;7390138;19;20034;-71
2023/08/31 11:16:45;;;;;;;12.00;2.80;;;19.40;1.00;;;;;;7392152;19;20014;-70
2023/08/31 11:19:15;;;;;;;6.93;2.65;;;19.30;1.00;;;;;;7391713;19;20081;-71
2023/08/31 11:21:45;;;;;;;5.28;2.17;;;18.80;1.00;;;;;;7389857;19;20015;-71
2023/08/31 11:24:16;;;;;;;7.30;2.15;;;19.20;1.00;;;;;;7391308;19;20484;-72
2023/08/31 11:26:46;;;;;;;5.97;2.03;;;19.20;1.00;;;;;;7391983;19;20024;-70
2023/08/31 11:29:16;;;;;;;5.10;1.88;;;19.10;1.00;;;;;;7390055;19;20038;-72
2023/08/31 11:31:48;;;;;;;5.85;2.20;;;18.80;1.00;;;;;;7390064;19;20128;-70
2023/08/31 11:34:21;;;;;;;5.47;1.85;;;19.50;1.00;;;;;;7391095;19;20014;-71
2023/08/31 11:36:51;;;;;;;4.45;1.98;;;19.60;1.00;;;;;;7391270;19;20471;-72
2023/08/31 11:39:22;;;;;;;4.95;1.92;;;19.60;1.00;;;;;;7391063;19;20010;-71
2023/08/31 11:41:52;;;;;;;4.55;1.92;;;19.20;1.00;;;;;;7388720;19;20011;-72
2023/08/31 11:44:22;;;;;;;5.70;2.10;;;19.50;1.00;;;;;;7391236;19;20006;-72
2023/08/31 11:46:55;;;;;;;5.10;1.98;;;19.30;1.00;;;;;;7391209;19;20010;-72
2023/08/31 11:49:25;;;;;;;6.65;2.45;;;19.50;1.00;;;;;;7389471;19;20031;-72
2023/08/31 11:51:55;;;;;;;6.63;1.90;;;20.20;1.00;;;;;;7388732;19;20471;-73
2023/08/31 11:54:27;;;;;;;4.38;1.58;;;20.40;1.00;;;;;;7390346;19;20354;-74
2023/08/31 11:56:58;;;;;;;5.22;1.90;;;20.50;1.00;;;;;;7392105;19;20018;-72
2023/08/31 11:59:28;;;;;;;5.18;2.00;;;19.80;1.00;;;;;;7398561;19;20350;-73
2023/08/31 12:02:00;;;;;;;4.32;1.75;;;19.80;1.00;;;;;;7395660;19;20070;-72
2023/08/31 12:04:30;;;;;;;6.93;2.10;;;19.80;1.00;;;;;;7398092;19;20414;-73
2023/08/31 12:07:06;;;;;;;5.38;1.95;;;19.70;1.00;;;;;;7397807;19;20494;-72
2023/08/31 12:09:36;;;;;;;4.32;1.80;;;20.30;1.00;;;;;;7396145;19;20006;-72
2023/08/31 12:12:07;;;;;;;4.43;1.90;;;20.30;1.00;;;;;;7396971;19;20078;-72
2023/08/31 12:14:41;;;;;;;5.97;2.05;;;19.90;1.00;;;;;;7397840;19;20014;-73
2023/08/31 12:17:13;;;;;;;5.07;1.83;;;19.70;1.00;;;;;;7397964;19;20010;-73
2023/08/31 12:19:44;;;;;;;5.88;2.10;;;19.90;1.00;;;;;;7397231;19;20010;-71
2023/08/31 12:22:15;;;;;;;5.25;1.83;;;19.50;1.00;;;;;;7397381;19;20031;-72
2023/08/31 12:24:45;;;;;;;4.70;1.85;;;19.70;1.00;;;;;;7394630;19;20422;-72
2023/08/31 12:27:14;;;;;;;6.03;1.80;;;19.70;1.00;;;;;;7391919;19;20022;-72
2023/08/31 12:29:46;;;;;;;3.63;1.80;;;19.40;1.00;;;;;;7391315;19;20017;-72
2023/08/31 12:32:19;;;;;;;7.13;1.90;;;19.70;1.00;;;;;;7394346;19;20018;-73
2023/08/31 12:34:49;;;;;;;4.50;1.70;;;19.80;1.00;;;;;;7394095;19;20015;-72
2023/08/31 12:37:19;;;;;;;5.72;2.10;;;19.50;1.00;;;;;;7397435;19;20027;-72
2023/08/31 12:39:49;;;;;;;3.63;2.00;;;20.30;1.00;;;;;;7396792;19;20006;-71
2023/08/31 12:42:19;;;;;;;4.90;2.30;;;20.70;1.00;;;;;;7397170;19;20038;-72
2023/08/31 12:44:52;;;;;;;5.20;1.90;;;21.00;1.00;;;;;;7396733;19;20481;-72
2023/08/31 12:47:25;;;;;;;2.70;1.67;;;21.20;1.00;;;;;;7396073;19;20502;-72
2023/08/31 12:49:56;;;;;;;4.28;1.90;;;21.00;1.00;;;;;;7394181;19;20014;-72
2023/08/31 12:52:34;;;;;;;6.60;2.85;;;20.40;1.00;;;;;;7396603;19;20045;-72
2023/08/31 12:55:06;;;;;;;4.50;2.00;;;20.70;1.00;;;;;;7395075;19;20016;-73
2023/08/31 12:57:36;;;;;;;3.30;1.48;;;20.20;1.00;;;;;;7395147;19;20014;-73
2023/08/31 13:00:09;;;;;;;4.28;1.55;;;19.90;1.00;;;;;;7394268;19;20014;-72
2023/08/31 13:02:42;;;;;;;5.10;2.08;;;19.60;1.00;;;;;;7396153;19;20071;-72
2023/08/31 13:05:12;;;;;;;3.42;1.70;;;19.70;1.00;;;;;;7395326;19;20014;-73
2023/08/31 13:07:42;;;;;;;2.72;1.55;;;19.50;1.00;;;;;;7393701;19;20475;-72
2023/08/31 13:10:12;;;;;;;3.90;1.52;;;19.60;1.00;;;;;;7391739;19;20038;-71
2023/08/31 13:12:42;;;;;;;5.10;2.05;;;20.10;1.00;;;;;;7395965;19;20137;-72
2023/08/31 13:15:15;;;;;;;6.43;1.95;;;20.50;1.00;;;;;;7395308;19;20038;-71